Time,TemperatureF,DewpointF,PressureIn,WindDirection,WindDirectionDegrees,WindSpeedMPH,WindSpeedGustMPH,Humidity,HourlyPrecipIn,Conditions,Clouds,dailyrainin,SoftwareType,DateUTC
2013-09-23 00:01:00,64.1,51.2,29.75,NNE,23,0.0,0.0,63,0.00,,,0.00,WUHU216HW,2013-09-23 05:01:00,
2013-09-23 00:06:00,63.9,51.5,29.75,NNE,23,0.0,0.0,64,0.00,,,0.00,WUHU216HW,2013-09-23 05:06:00,
2013-09-23 00:12:00,63.7,51.3,29.75,NNE,23,0.0,0.0,64,0.00,,,0.00,WUHU216HW,2013-09-23 05:12:00,
2013-09-23 00:17:00,63.4,51.4,29.75,NNE,23,0.0,0.0,65,0.00,,,0.00,WUHU216HW,2013-09-23 05:17:00,
2013-09-23 00:22:00,63.0,51.0,29.75,NNE,23,0.0,0.0,65,0.00,,,0.00,WUHU216HW,2013-09-23 05:22:00,
2013-09-23 00:27:00,62.8,52.1,29.75,NNE,23,0.0,0.0,68,0.00,,,0.00,WUHU216HW,2013-09-23 05:27:00,
2013-09-23 00:32:00,62.3,52.7,29.75,NNE,23,0.0,0.0,71,0.00,,,0.00,WUHU216HW,2013-09-23 05:32:00,
2013-09-23 00:37:00,61.9,51.7,29.75,NNE,23,0.0,0.0,69,0.00,,,0.00,WUHU216HW,2013-09-23 05:37:00,
2013-09-23 00:42:00,61.7,51.5,29.74,NNE,23,0.0,0.0,69,0.00,,,0.00,WUHU216HW,2013-09-23 05:42:00,
2013-09-23 00:47:00,61.6,51.4,29.75,NNE,23,0.0,0.0,69,0.00,,,0.00,WUHU216HW,2013-09-23 05:47:00,
2013-09-23 00:52:00,61.4,51.2,29.75,NNE,23,0.0,0.0,69,0.00,,,0.00,WUHU216HW,2013-09-23 05:52:00,
2013-09-23 00:57:00,61.2,51.0,29.74,NNE,23,0.0,0.0,69,0.00,,,0.00,WUHU216HW,2013-09-23 05:57:00,
2013-09-23 01:02:00,61.0,51.3,29.74,NNE,23,0.0,0.0,70,0.00,,,0.00,WUHU216HW,2013-09-23 06:02:00,
2013-09-23 01:07:00,60.7,52.0,29.75,NNE,23,0.0,0.0,73,0.00,,,0.00,WUHU216HW,2013-09-23 06:07:00,
2013-09-23 01:12:00,60.5,51.5,29.75,NNE,23,0.0,0.0,72,0.00,,,0.00,WUHU216HW,2013-09-23 06:12:00,
2013-09-23 01:17:00,60.3,52.0,29.75,NNE,23,0.0,0.0,74,0.00,,,0.00,WUHU216HW,2013-09-23 06:17:00,
2013-09-23 01:22:00,60.1,51.5,29.75,NNE,23,0.0,0.0,73,0.00,,,0.00,WUHU216HW,2013-09-23 06:22:00,
2013-09-23 01:27:00,59.9,51.3,29.75,NNE,23,0.0,0.0,73,0.00,,,0.00,WUHU216HW,2013-09-23 06:27:00,
2013-09-23 01:32:00,59.8,51.1,29.75,NNE,23,0.0,0.0,73,0.00,,,0.00,WUHU216HW,2013-09-23 06:32:00,
2013-09-23 01:37:00,59.8,51.5,29.75,NNE,23,0.0,0.0,74,0.00,,,0.00,WUHU216HW,2013-09-23 06:37:00,
2013-09-23 01:42:00,59.6,51.3,29.75,NNE,23,0.0,0.0,74,0.00,,,0.00,WUHU216HW,2013-09-23 06:42:00,
2013-09-23 01:47:00,59.4,51.1,29.75,NNE,23,0.0,0.0,74,0.00,,,0.00,WUHU216HW,2013-09-23 06:47:00,
2013-09-23 01:52:00,59.4,51.1,29.75,NNE,23,0.0,0.0,74,0.00,,,0.00,WUHU216HW,2013-09-23 06:52:00,
2013-09-23 01:57:00,59.2,50.9,29.75,NNE,23,0.0,0.0,74,0.00,,,0.00,WUHU216HW,2013-09-23 06:57:00,
2013-09-23 02:02:00,59.0,51.1,29.75,NNE,23,0.0,0.0,75,0.00,,,0.00,WUHU216HW,2013-09-23 07:02:00,
2013-09-23 02:07:00,58.9,50.9,29.75,NNE,23,0.0,0.0,75,0.00,,,0.00,WUHU216HW,2013-09-23 07:07:00,
2013-09-23 02:12:00,58.7,50.8,29.76,NNE,23,0.0,0.0,75,0.00,,,0.00,WUHU216HW,2013-09-23 07:12:00,
2013-09-23 02:17:00,58.7,51.5,29.76,NNE,23,0.0,0.0,77,0.00,,,0.00,WUHU216HW,2013-09-23 07:17:00,
2013-09-23 02:22:00,58.5,51.3,29.76,NNE,23,0.0,0.0,77,0.00,,,0.00,WUHU216HW,2013-09-23 07:22:00,
2013-09-23 02:27:00,58.3,50.8,29.76,NNE,23,0.0,0.0,76,0.00,,,0.00,WUHU216HW,2013-09-23 07:27:00,
2013-09-23 02:32:00,58.3,51.1,29.76,NNE,23,0.0,0.0,77,0.00,,,0.00,WUHU216HW,2013-09-23 07:32:00,
2013-09-23 02:37:00,58.3,51.1,29.76,NNE,23,0.0,0.0,77,0.00,,,0.00,WUHU216HW,2013-09-23 07:37:00,
2013-09-23 02:42:00,58.1,50.6,29.76,NNE,23,0.0,0.0,76,0.00,,,0.00,WUHU216HW,2013-09-23 07:42:00,
2013-09-23 02:47:00,58.0,51.1,29.76,NNE,23,0.0,0.0,78,0.00,,,0.00,WUHU216HW,2013-09-23 07:47:00,
2013-09-23 02:52:00,57.8,50.9,29.76,NNE,23,0.0,0.0,78,0.00,,,0.00,WUHU216HW,2013-09-23 07:52:00,
2013-09-23 02:57:00,57.6,51.1,29.76,NNE,23,0.0,0.0,79,0.00,,,0.00,WUHU216HW,2013-09-23 07:57:00,
2013-09-23 03:02:00,57.6,51.1,29.76,NNE,23,0.0,0.0,79,0.00,,,0.00,WUHU216HW,2013-09-23 08:02:00,
2013-09-23 03:07:00,57.6,51.1,29.76,NNE,23,0.0,0.0,79,0.00,,,0.00,WUHU216HW,2013-09-23 08:07:00,
2013-09-23 03:12:00,57.4,51.3,29.76,NNE,23,0.0,0.0,80,0.00,,,0.00,WUHU216HW,2013-09-23 08:12:00,
2013-09-23 03:17:00,57.4,50.9,29.76,NNE,23,0.0,0.0,79,0.00,,,0.00,WUHU216HW,2013-09-23 08:17:00,
2013-09-23 03:22:00,57.2,50.8,29.76,NNE,23,0.0,0.0,79,0.00,,,0.00,WUHU216HW,2013-09-23 08:22:00,
2013-09-23 03:27:00,57.2,50.8,29.75,NNE,23,0.0,0.0,79,0.00,,,0.00,WUHU216HW,2013-09-23 08:27:00,
2013-09-23 03:32:00,57.2,50.8,29.75,NNE,23,0.0,0.0,79,0.00,,,0.00,WUHU216HW,2013-09-23 08:32:00,
2013-09-23 03:37:00,57.1,51.6,29.75,NNE,23,0.0,0.0,82,0.00,,,0.00,WUHU216HW,2013-09-23 08:37:00,
2013-09-23 03:42:00,56.9,51.1,29.75,NNE,23,0.4,0.4,81,0.00,,,0.00,WUHU216HW,2013-09-23 08:42:00,
2013-09-23 03:47:00,56.9,51.1,29.75,NNE,23,0.2,0.7,81,0.00,,,0.00,WUHU216HW,2013-09-23 08:47:00,
2013-09-23 03:52:00,57.1,51.3,29.75,NNE,23,0.7,0.7,81,0.00,,,0.00,WUHU216HW,2013-09-23 08:52:00,
2013-09-23 03:57:00,57.1,51.6,29.76,NNE,23,0.0,0.7,82,0.00,,,0.00,WUHU216HW,2013-09-23 08:57:00,
2013-09-23 04:02:00,57.1,51.6,29.75,NNE,23,0.0,0.0,82,0.00,,,0.00,WUHU216HW,2013-09-23 09:02:00,
2013-09-23 04:07:00,56.9,51.1,29.75,NNE,23,0.0,0.0,81,0.00,,,0.00,WUHU216HW,2013-09-23 09:07:00,
2013-09-23 04:12:00,56.9,51.1,29.75,NNE,23,0.0,0.2,81,0.00,,,0.00,WUHU216HW,2013-09-23 09:12:00,
2013-09-23 04:17:00,56.9,51.1,29.75,NNE,23,0.0,0.2,81,0.00,,,0.00,WUHU216HW,2013-09-23 09:17:00,
2013-09-23 04:22:00,56.5,50.8,29.75,NNE,23,0.0,0.0,81,0.00,,,0.00,WUHU216HW,2013-09-23 09:22:00,
2013-09-23 04:27:00,56.5,50.8,29.75,NNE,23,0.7,0.7,81,0.00,,,0.00,WUHU216HW,2013-09-23 09:27:00,
2013-09-23 04:32:00,56.5,50.8,29.75,NNE,23,0.0,0.7,81,0.00,,,0.00,WUHU216HW,2013-09-23 09:32:00,
2013-09-23 04:37:00,56.5,51.4,29.75,NNE,23,0.0,0.4,83,0.00,,,0.00,WUHU216HW,2013-09-23 09:37:00,
2013-09-23 04:42:00,56.5,51.4,29.75,NNE,23,0.0,0.0,83,0.00,,,0.00,WUHU216HW,2013-09-23 09:42:00,
2013-09-23 04:47:00,56.5,51.4,29.75,NNE,23,0.0,0.0,83,0.00,,,0.00,WUHU216HW,2013-09-23 09:47:00,
2013-09-23 04:52:00,56.5,50.8,29.75,NNE,23,0.0,0.0,81,0.00,,,0.00,WUHU216HW,2013-09-23 09:52:00,
2013-09-23 04:57:00,56.5,50.8,29.75,NNE,23,0.0,0.0,81,0.00,,,0.00,WUHU216HW,2013-09-23 09:57:00,
2013-09-23 05:03:00,56.5,51.0,29.76,NNE,23,0.0,0.0,82,0.00,,,0.00,WUHU216HW,2013-09-23 10:03:00,
2013-09-23 05:08:00,56.3,51.2,29.76,NNE,23,0.0,0.0,83,0.00,,,0.00,WUHU216HW,2013-09-23 10:08:00,
2013-09-23 05:13:00,56.2,50.7,29.76,NNE,23,0.0,0.0,82,0.00,,,0.00,WUHU216HW,2013-09-23 10:13:00,
2013-09-23 05:18:00,56.2,50.7,29.76,NNE,23,0.0,0.0,82,0.00,,,0.00,WUHU216HW,2013-09-23 10:18:00,
2013-09-23 05:23:00,56.2,51.0,29.76,NNE,23,0.0,0.0,83,0.00,,,0.00,WUHU216HW,2013-09-23 10:23:00,
2013-09-23 05:28:00,56.2,51.3,29.76,NNE,23,0.0,0.0,84,0.00,,,0.00,WUHU216HW,2013-09-23 10:28:00,
2013-09-23 05:33:00,56.2,51.0,29.76,NNE,23,0.0,0.0,83,0.00,,,0.00,WUHU216HW,2013-09-23 10:33:00,
2013-09-23 05:38:00,56.0,50.9,29.76,NNE,23,0.0,0.0,83,0.00,,,0.00,WUHU216HW,2013-09-23 10:38:00,
2013-09-23 05:43:00,55.6,51.1,29.77,NNE,23,0.0,0.0,85,0.00,,,0.00,WUHU216HW,2013-09-23 10:43:00,
2013-09-23 05:48:00,55.3,50.8,29.76,NNE,23,0.0,0.0,85,0.00,,,0.00,WUHU216HW,2013-09-23 10:48:00,
2013-09-23 05:53:00,55.1,50.3,29.76,NNE,23,0.0,0.0,84,0.00,,,0.00,WUHU216HW,2013-09-23 10:53:00,
2013-09-23 05:58:00,54.9,50.1,29.76,NNE,23,0.0,0.0,84,0.00,,,0.00,WUHU216HW,2013-09-23 10:58:00,
2013-09-23 06:03:00,54.9,50.1,29.76,NNE,23,0.0,0.0,84,0.00,,,0.00,WUHU216HW,2013-09-23 11:03:00,
2013-09-23 06:08:00,54.9,50.1,29.76,NNE,23,0.0,0.0,84,0.00,,,0.00,WUHU216HW,2013-09-23 11:08:00,
2013-09-23 06:13:00,54.9,50.1,29.76,NNE,23,0.0,0.0,84,0.00,,,0.00,WUHU216HW,2013-09-23 11:13:00,
2013-09-23 06:18:00,55.1,50.3,29.76,NNE,23,0.0,0.0,84,0.00,,,0.00,WUHU216HW,2013-09-23 11:18:00,
2013-09-23 06:23:00,55.1,50.3,29.76,NNE,23,0.0,0.0,84,0.00,,,0.00,WUHU216HW,2013-09-23 11:23:00,
2013-09-23 06:28:00,55.1,50.3,29.75,NNE,23,0.0,0.4,84,0.00,,,0.00,WUHU216HW,2013-09-23 11:28:00,
2013-09-23 06:33:00,54.9,50.1,29.76,NNE,23,0.0,0.4,84,0.00,,,0.00,WUHU216HW,2013-09-23 11:33:00,
2013-09-23 06:38:00,55.1,50.3,29.76,NNE,23,0.0,0.4,84,0.00,,,0.00,WUHU216HW,2013-09-23 11:38:00,
2013-09-23 06:43:00,55.1,50.3,29.76,NNE,23,0.0,0.2,84,0.00,,,0.00,WUHU216HW,2013-09-23 11:43:00,
2013-09-23 06:48:00,55.1,50.3,29.76,NNE,23,0.4,0.9,84,0.00,,,0.00,WUHU216HW,2013-09-23 11:48:00,
2013-09-23 06:53:00,55.1,50.3,29.76,NNE,23,0.0,0.9,84,0.00,,,0.00,WUHU216HW,2013-09-23 11:53:00,
2013-09-23 06:58:00,55.3,50.5,29.76,NNE,23,0.0,1.1,84,0.00,,,0.00,WUHU216HW,2013-09-23 11:58:00,
2013-09-23 07:03:00,55.3,50.5,29.76,NNE,23,0.7,1.1,84,0.00,,,0.00,WUHU216HW,2013-09-23 12:03:00,
2013-09-23 07:08:00,55.1,50.3,29.76,NNE,23,0.0,1.1,84,0.00,,,0.00,WUHU216HW,2013-09-23 12:08:00,
2013-09-23 07:13:00,55.3,50.8,29.76,NNE,23,0.0,0.4,85,0.00,,,0.00,WUHU216HW,2013-09-23 12:13:00,
2013-09-23 07:18:00,55.3,51.1,29.77,NNE,23,0.0,0.0,86,0.00,,,0.00,WUHU216HW,2013-09-23 12:18:00,
2013-09-23 07:23:00,55.3,51.1,29.77,NNE,23,0.0,0.0,86,0.00,,,0.00,WUHU216HW,2013-09-23 12:23:00,
2013-09-23 07:28:00,55.3,51.1,29.77,NNE,23,0.0,0.4,86,0.00,,,0.00,WUHU216HW,2013-09-23 12:28:00,
2013-09-23 07:33:00,55.6,51.5,29.77,NNE,23,0.4,0.4,86,0.00,,,0.00,WUHU216HW,2013-09-23 12:33:00,
2013-09-23 07:38:00,56.3,52.2,29.77,NNE,23,0.9,1.1,86,0.00,,,0.00,WUHU216HW,2013-09-23 12:38:00,
2013-09-23 07:43:00,56.7,52.2,29.77,NNE,23,0.9,1.1,85,0.00,,,0.00,WUHU216HW,2013-09-23 12:43:00,
2013-09-23 07:48:00,57.2,52.4,29.77,NNE,23,0.4,1.1,84,0.00,,,0.00,WUHU216HW,2013-09-23 12:48:00,
2013-09-23 07:53:00,57.6,53.1,29.77,NNE,23,0.4,0.7,85,0.00,,,0.00,WUHU216HW,2013-09-23 12:53:00,
2013-09-23 07:58:00,58.5,54.0,29.77,NNE,23,0.0,0.7,85,0.00,,,0.00,WUHU216HW,2013-09-23 12:58:00,
2013-09-23 08:03:00,59.0,54.5,29.77,NNE,23,0.9,0.9,85,0.00,,,0.00,WUHU216HW,2013-09-23 13:03:00,
2013-09-23 08:08:00,59.6,54.7,29.77,NE,45,1.1,1.6,84,0.00,,,0.00,WUHU216HW,2013-09-23 13:08:00,
2013-09-23 08:13:00,60.1,55.3,29.77,NE,45,1.1,1.6,84,0.00,,,0.00,WUHU216HW,2013-09-23 13:13:00,
2013-09-23 08:18:00,60.5,55.4,29.77,ENE,68,0.9,1.3,83,0.00,,,0.00,WUHU216HW,2013-09-23 13:18:00,
2013-09-23 08:23:00,61.0,55.9,29.77,East,90,1.8,1.8,83,0.00,,,0.00,WUHU216HW,2013-09-23 13:23:00,
2013-09-23 08:28:00,61.4,56.2,29.77,ESE,113,1.3,2.5,83,0.00,,,0.00,WUHU216HW,2013-09-23 13:28:00,
2013-09-23 08:33:00,61.9,55.4,29.77,East,90,2.0,5.4,79,0.00,,,0.00,WUHU216HW,2013-09-23 13:33:00,
2013-09-23 08:38:00,62.5,55.8,29.77,East,90,2.7,5.4,79,0.00,,,0.00,WUHU216HW,2013-09-23 13:38:00,
2013-09-23 08:43:00,63.0,56.0,29.77,East,90,3.1,4.7,78,0.00,,,0.00,WUHU216HW,2013-09-23 13:43:00,
2013-09-23 08:48:00,63.5,56.9,29.77,East,90,2.5,6.3,79,0.00,,,0.00,WUHU216HW,2013-09-23 13:48:00,
2013-09-23 08:53:00,64.1,56.3,29.78,ESE,113,2.5,6.3,76,0.00,,,0.00,WUHU216HW,2013-09-23 13:53:00,
2013-09-23 08:58:00,64.6,56.5,29.78,ENE,68,3.4,4.7,75,0.00,,,0.00,WUHU216HW,2013-09-23 13:58:00,
2013-09-23 09:03:00,65.3,57.6,29.77,East,90,2.5,5.1,76,0.00,,,0.00,WUHU216HW,2013-09-23 14:03:00,
2013-09-23 09:08:00,65.9,57.7,29.77,ESE,113,3.8,5.1,75,0.00,,,0.00,WUHU216HW,2013-09-23 14:08:00,
2013-09-23 09:13:00,66.4,57.9,29.78,East,90,2.0,4.7,74,0.00,,,0.00,WUHU216HW,2013-09-23 14:13:00,
2013-09-23 09:18:00,66.8,57.1,29.78,ESE,113,3.4,4.7,71,0.00,,,0.00,WUHU216HW,2013-09-23 14:18:00,
2013-09-23 09:23:00,67.3,57.2,29.78,East,90,2.2,3.8,70,0.00,,,0.00,WUHU216HW,2013-09-23 14:23:00,
2013-09-23 09:28:00,67.9,58.1,29.78,ESE,113,3.4,3.6,71,0.00,,,0.00,WUHU216HW,2013-09-23 14:28:00,
2013-09-23 09:33:00,68.6,57.2,29.78,East,90,1.8,5.4,67,0.00,,,0.00,WUHU216HW,2013-09-23 14:33:00,
2013-09-23 09:38:00,69.1,57.2,29.79,SE,135,3.8,5.4,66,0.00,,,0.00,WUHU216HW,2013-09-23 14:38:00,
2013-09-23 09:43:00,69.5,57.2,29.78,ENE,68,2.9,5.4,65,0.00,,,0.00,WUHU216HW,2013-09-23 14:43:00,
2013-09-23 09:48:00,70.2,58.2,29.78,NNE,23,0.9,5.4,66,0.00,,,0.00,WUHU216HW,2013-09-23 14:48:00,
2013-09-23 09:53:00,71.1,57.9,29.79,SE,135,3.4,3.8,63,0.00,,,0.00,WUHU216HW,2013-09-23 14:53:00,
2013-09-23 09:58:00,71.6,58.3,29.79,ESE,113,4.0,5.1,63,0.00,,,0.00,WUHU216HW,2013-09-23 14:58:00,
2013-09-23 10:03:00,72.2,58.0,29.79,NE,45,2.9,5.1,61,0.00,,,0.00,WUHU216HW,2013-09-23 15:03:00,
2013-09-23 10:08:00,72.7,56.5,29.79,East,90,3.4,3.4,57,0.00,,,0.00,WUHU216HW,2013-09-23 15:08:00,
2013-09-23 10:13:00,72.7,57.1,29.79,ENE,68,2.7,5.4,58,0.00,,,0.00,WUHU216HW,2013-09-23 15:13:00,
2013-09-23 10:18:00,73.1,57.3,29.78,East,90,6.0,6.0,58,0.00,,,0.00,WUHU216HW,2013-09-23 15:18:00,
2013-09-23 10:23:00,73.6,56.9,29.78,ENE,68,6.3,6.3,56,0.00,,,0.00,WUHU216HW,2013-09-23 15:23:00,
2013-09-23 10:28:00,74.2,56.9,29.78,NNE,23,2.5,6.3,55,0.00,,,0.00,WUHU216HW,2013-09-23 15:28:00,
2013-09-23 10:33:00,74.9,57.1,29.78,SE,135,1.8,5.6,54,0.00,,,0.00,WUHU216HW,2013-09-23 15:33:00,
2013-09-23 10:38:00,75.1,56.3,29.79,ESE,113,6.9,6.9,52,0.00,,,0.00,WUHU216HW,2013-09-23 15:38:00,
2013-09-23 10:43:00,75.1,55.8,29.78,East,90,3.6,6.9,51,0.00,,,0.00,WUHU216HW,2013-09-23 15:43:00,
2013-09-23 10:48:00,75.4,56.1,29.78,SE,135,4.7,5.4,51,0.00,,,0.00,WUHU216HW,2013-09-23 15:48:00,
2013-09-23 10:53:00,76.0,56.6,29.78,SE,135,5.8,5.8,51,0.00,,,0.00,WUHU216HW,2013-09-23 15:53:00,
2013-09-23 10:58:00,76.0,56.6,29.79,SE,135,2.5,6.5,51,0.00,,,0.00,WUHU216HW,2013-09-23 15:58:00,
2013-09-23 11:03:00,76.3,56.4,29.79,ESE,113,2.5,7.6,50,0.00,,,0.00,WUHU216HW,2013-09-23 16:03:00,
2013-09-23 11:08:00,77.4,56.8,29.78,ESE,113,5.8,7.6,49,0.00,,,0.00,WUHU216HW,2013-09-23 16:08:00,
2013-09-23 11:13:00,77.6,56.4,29.78,SSE,158,6.3,6.3,48,0.00,,,0.00,WUHU216HW,2013-09-23 16:13:00,
2013-09-23 11:18:00,77.6,57.0,29.78,ENE,68,4.0,6.3,49,0.00,,,0.00,WUHU216HW,2013-09-23 16:18:00,
2013-09-23 11:23:00,77.9,54.8,29.78,ESE,113,6.5,6.9,45,0.00,,,0.00,WUHU216HW,2013-09-23 16:23:00,
2013-09-23 11:28:00,78.1,53.7,29.78,ENE,68,2.5,6.9,43,0.00,,,0.00,WUHU216HW,2013-09-23 16:28:00,
2013-09-23 11:33:00,78.1,55.0,29.78,SE,135,4.7,6.0,45,0.00,,,0.00,WUHU216HW,2013-09-23 16:33:00,
2013-09-23 11:38:00,77.9,54.2,29.78,SE,135,3.4,6.0,44,0.00,,,0.00,WUHU216HW,2013-09-23 16:38:00,
2013-09-23 11:45:00,78.8,55.6,29.77,SSE,158,2.5,4.0,45,0.00,,,0.00,WUHU216HW,2013-09-23 16:45:00,
2013-09-23 11:50:00,79.0,55.2,29.78,ESE,113,3.4,5.1,44,0.00,,,0.00,WUHU216HW,2013-09-23 16:50:00,
2013-09-23 11:55:00,79.0,55.2,29.78,SE,135,1.3,5.1,44,0.00,,,0.00,WUHU216HW,2013-09-23 16:55:00,
2013-09-23 12:00:00,79.2,55.4,29.77,ESE,113,5.6,6.3,44,0.00,,,0.00,WUHU216HW,2013-09-23 17:00:00,
2013-09-23 12:05:00,79.6,55.1,29.77,East,90,3.6,6.3,43,0.00,,,0.00,WUHU216HW,2013-09-23 17:05:00,
2013-09-23 12:10:00,79.9,54.7,29.77,ENE,68,3.8,4.3,42,0.00,,,0.00,WUHU216HW,2013-09-23 17:10:00,
2013-09-23 12:15:00,80.3,55.1,29.77,NNE,23,1.8,4.0,42,0.00,,,0.00,WUHU216HW,2013-09-23 17:15:00,
2013-09-23 12:20:00,80.6,56.0,29.77,SE,135,2.2,4.0,43,0.00,,,0.00,WUHU216HW,2013-09-23 17:20:00,
2013-09-23 12:25:00,81.0,54.6,29.77,SE,135,4.0,4.9,40,0.00,,,0.00,WUHU216HW,2013-09-23 17:25:00,
2013-09-23 12:30:00,80.8,55.0,29.77,SSE,158,1.6,4.9,41,0.00,,,0.00,WUHU216HW,2013-09-23 17:30:00,
2013-09-23 12:35:00,81.2,54.6,29.77,West,270,0.4,3.6,40,0.00,,,0.00,WUHU216HW,2013-09-23 17:35:00,
2013-09-23 12:40:00,81.4,54.8,29.76,SSW,203,1.1,2.0,40,0.00,,,0.00,WUHU216HW,2013-09-23 17:40:00,
2013-09-23 12:45:00,81.7,55.2,29.76,NNW,338,1.8,2.5,40,0.00,,,0.00,WUHU216HW,2013-09-23 17:45:00,
2013-09-23 12:50:00,81.5,54.2,29.76,SE,135,0.7,2.5,39,0.00,,,0.00,WUHU216HW,2013-09-23 17:50:00,
2013-09-23 12:55:00,81.9,54.6,29.76,SSW,203,1.1,4.7,39,0.00,,,0.00,WUHU216HW,2013-09-23 17:55:00,
2013-09-23 13:00:00,82.1,55.4,29.75,North,0,0.4,4.7,40,0.00,,,0.00,WUHU216HW,2013-09-23 18:00:00,
2013-09-23 13:05:00,82.8,56.7,29.75,North,0,2.5,3.4,41,0.00,,,0.00,WUHU216HW,2013-09-23 18:05:00,
2013-09-23 13:10:00,82.8,55.4,29.75,SE,135,2.9,4.0,39,0.00,,,0.00,WUHU216HW,2013-09-23 18:10:00,
2013-09-23 13:15:00,82.6,54.4,29.74,ESE,113,1.1,4.0,38,0.00,,,0.00,WUHU216HW,2013-09-23 18:15:00,
2013-09-23 13:20:00,82.6,55.2,29.74,ESE,113,1.8,3.8,39,0.00,,,0.00,WUHU216HW,2013-09-23 18:20:00,
2013-09-23 13:25:00,83.3,56.6,29.74,ESE,113,4.5,4.9,40,0.00,,,0.00,WUHU216HW,2013-09-23 18:25:00,
2013-09-23 13:30:00,83.5,53.7,29.74,SSW,203,4.0,4.9,36,0.00,,,0.00,WUHU216HW,2013-09-23 18:30:00,
2013-09-23 13:35:00,83.3,56.6,29.74,ESE,113,3.8,5.1,40,0.00,,,0.00,WUHU216HW,2013-09-23 18:35:00,
2013-09-23 13:40:00,83.5,56.0,29.73,East,90,4.0,5.1,39,0.00,,,0.00,WUHU216HW,2013-09-23 18:40:00,
2013-09-23 13:45:00,83.5,56.8,29.73,North,0,1.1,4.7,40,0.00,,,0.00,WUHU216HW,2013-09-23 18:45:00,
2013-09-23 13:50:00,84.1,56.4,29.72,ESE,113,4.9,7.6,39,0.00,,,0.00,WUHU216HW,2013-09-23 18:50:00,
2013-09-23 13:55:00,83.9,55.5,29.72,SW,225,1.1,7.6,38,0.00,,,0.00,WUHU216HW,2013-09-23 18:55:00,
2013-09-23 14:00:00,84.6,57.8,29.72,ESE,113,6.5,6.9,40,0.00,,,0.00,WUHU216HW,2013-09-23 19:00:00,
2013-09-23 14:05:00,84.4,56.0,29.72,East,90,1.8,6.9,38,0.00,,,0.00,WUHU216HW,2013-09-23 19:05:00,
2013-09-23 14:10:00,84.4,55.2,29.72,SE,135,0.7,5.1,37,0.00,,,0.00,WUHU216HW,2013-09-23 19:10:00,
2013-09-23 14:15:00,85.1,55.9,29.71,North,0,1.1,3.4,37,0.00,,,0.00,WUHU216HW,2013-09-23 19:15:00,
2013-09-23 14:20:00,85.1,54.3,29.71,ENE,68,3.1,5.8,35,0.00,,,0.00,WUHU216HW,2013-09-23 19:20:00,
2013-09-23 14:25:00,84.6,54.5,29.71,NW,315,0.7,5.8,36,0.00,,,0.00,WUHU216HW,2013-09-23 19:25:00,
2013-09-23 14:30:00,84.8,56.4,29.71,ESE,113,5.4,5.4,38,0.00,,,0.00,WUHU216HW,2013-09-23 19:30:00,
2013-09-23 14:35:00,85.0,55.7,29.71,ESE,113,4.0,6.0,37,0.00,,,0.00,WUHU216HW,2013-09-23 19:35:00,
2013-09-23 14:40:00,85.5,56.2,29.71,NNW,338,0.7,6.0,37,0.00,,,0.00,WUHU216HW,2013-09-23 19:40:00,
2013-09-23 14:45:00,86.8,57.3,29.70,ENE,68,3.1,3.1,37,0.00,,,0.00,WUHU216HW,2013-09-23 19:45:00,
2013-09-23 14:50:00,87.5,58.7,29.70,North,0,4.3,4.3,38,0.00,,,0.00,WUHU216HW,2013-09-23 19:50:00,
2013-09-23 14:55:00,87.1,54.4,29.70,SE,135,1.8,6.3,33,0.00,,,0.00,WUHU216HW,2013-09-23 19:55:00,
2013-09-23 15:00:00,86.8,54.1,29.70,SW,225,1.8,6.3,33,0.00,,,0.00,WUHU216HW,2013-09-23 20:00:00,
2013-09-23 15:05:00,86.9,54.3,29.70,NNW,338,1.1,4.3,33,0.00,,,0.00,WUHU216HW,2013-09-23 20:05:00,
2013-09-23 15:10:00,87.1,54.4,29.70,ESE,113,1.3,3.4,33,0.00,,,0.00,WUHU216HW,2013-09-23 20:10:00,
2013-09-23 15:15:00,86.6,54.7,29.70,East,90,5.1,5.8,34,0.00,,,0.00,WUHU216HW,2013-09-23 20:15:00,
2013-09-23 15:20:00,86.0,55.9,29.70,ESE,113,4.7,5.8,36,0.00,,,0.00,WUHU216HW,2013-09-23 20:20:00,
2013-09-23 15:25:00,86.6,57.2,29.69,ESE,113,0.4,4.7,37,0.00,,,0.00,WUHU216HW,2013-09-23 20:25:00,
2013-09-23 15:30:00,86.6,58.0,29.69,SE,135,1.8,3.8,38,0.00,,,0.00,WUHU216HW,2013-09-23 20:30:00,
2013-09-23 15:35:00,86.9,56.6,29.69,SSE,158,1.8,3.8,36,0.00,,,0.00,WUHU216HW,2013-09-23 20:35:00,
2013-09-23 15:40:00,87.7,56.4,29.69,ESE,113,5.4,5.4,35,0.00,,,0.00,WUHU216HW,2013-09-23 20:40:00,
2013-09-23 15:45:00,87.8,55.8,29.69,SW,225,1.3,5.4,34,0.00,,,0.00,WUHU216HW,2013-09-23 20:45:00,
2013-09-23 15:50:00,87.8,55.8,29.69,SSW,203,1.1,5.4,34,0.00,,,0.00,WUHU216HW,2013-09-23 20:50:00,
2013-09-23 15:55:00,87.8,55.8,29.69,ENE,68,2.5,4.3,34,0.00,,,0.00,WUHU216HW,2013-09-23 20:55:00,
2013-09-23 16:00:00,88.6,58.1,29.68,ESE,113,1.8,4.3,36,0.00,,,0.00,WUHU216HW,2013-09-23 21:00:00,
2013-09-23 16:05:00,88.6,56.4,29.68,SSE,158,4.0,4.0,34,0.00,,,0.00,WUHU216HW,2013-09-23 21:05:00,
2013-09-23 16:10:00,88.9,58.3,29.68,ESE,113,2.5,4.7,36,0.00,,,0.00,WUHU216HW,2013-09-23 21:10:00,
2013-09-23 16:15:00,88.2,56.9,29.68,East,90,5.1,6.9,35,0.00,,,0.00,WUHU216HW,2013-09-23 21:15:00,
2013-09-23 16:20:00,87.8,57.4,29.68,ENE,68,3.1,7.2,36,0.00,,,0.00,WUHU216HW,2013-09-23 21:20:00,
2013-09-23 16:25:00,88.4,57.9,29.68,ENE,68,3.4,7.2,36,0.00,,,0.00,WUHU216HW,2013-09-23 21:25:00,
2013-09-23 16:30:00,88.9,58.3,29.67,SSE,158,4.5,5.1,36,0.00,,,0.00,WUHU216HW,2013-09-23 21:30:00,
2013-09-23 16:35:00,89.6,59.0,29.67,SE,135,3.6,5.1,36,0.00,,,0.00,WUHU216HW,2013-09-23 21:35:00,
2013-09-23 16:40:00,89.1,58.5,29.67,SE,135,5.4,5.4,36,0.00,,,0.00,WUHU216HW,2013-09-23 21:40:00,
2013-09-23 16:45:00,89.1,58.5,29.67,SE,135,1.1,5.8,36,0.00,,,0.00,WUHU216HW,2013-09-23 21:45:00,
2013-09-23 16:50:00,88.9,57.5,29.67,ESE,113,2.5,6.9,35,0.00,,,0.00,WUHU216HW,2013-09-23 21:50:00,
2013-09-23 16:55:00,88.9,58.3,29.67,ESE,113,1.8,6.9,36,0.00,,,0.00,WUHU216HW,2013-09-23 21:55:00,
2013-09-23 17:00:00,88.6,59.7,29.67,ESE,113,3.6,5.1,38,0.00,,,0.00,WUHU216HW,2013-09-23 22:00:00,
2013-09-23 17:05:00,88.7,59.8,29.67,ENE,68,2.2,4.3,38,0.00,,,0.00,WUHU216HW,2013-09-23 22:05:00,
2013-09-23 17:10:00,87.5,58.7,29.67,ENE,68,3.4,4.7,38,0.00,,,0.00,WUHU216HW,2013-09-23 22:10:00,
2013-09-23 17:15:00,86.9,59.9,29.67,ESE,113,2.2,4.7,40,0.00,,,0.00,WUHU216HW,2013-09-23 22:15:00,
2013-09-23 17:20:00,86.8,58.1,29.67,ESE,113,3.4,4.0,38,0.00,,,0.00,WUHU216HW,2013-09-23 22:20:00,
2013-09-23 17:25:00,86.6,58.0,29.67,SSE,158,3.4,4.9,38,0.00,,,0.00,WUHU216HW,2013-09-23 22:25:00,
2013-09-23 17:30:00,86.4,58.6,29.67,SE,135,3.8,5.1,39,0.00,,,0.00,WUHU216HW,2013-09-23 22:30:00,
2013-09-23 17:35:00,86.9,58.2,29.67,ENE,68,1.8,5.1,38,0.00,,,0.00,WUHU216HW,2013-09-23 22:35:00,
2013-09-23 17:40:00,87.8,59.0,29.67,East,90,2.5,3.8,38,0.00,,,0.00,WUHU216HW,2013-09-23 22:40:00,
2013-09-23 17:45:00,88.0,59.2,29.67,ESE,113,1.8,3.6,38,0.00,,,0.00,WUHU216HW,2013-09-23 22:45:00,
2013-09-23 17:50:00,87.8,59.9,29.68,SSE,158,4.0,4.7,39,0.00,,,0.00,WUHU216HW,2013-09-23 22:50:00,
2013-09-23 17:55:00,87.8,59.9,29.68,ESE,113,3.1,5.8,39,0.00,,,0.00,WUHU216HW,2013-09-23 22:55:00,
2013-09-23 18:00:00,87.3,59.4,29.68,ESE,113,2.2,6.7,39,0.00,,,0.00,WUHU216HW,2013-09-23 23:00:00,
2013-09-23 18:05:00,87.8,59.9,29.69,ESE,113,2.5,6.7,39,0.00,,,0.00,WUHU216HW,2013-09-23 23:05:00,
2013-09-23 18:10:00,87.5,59.5,29.68,ESE,113,3.6,4.0,39,0.00,,,0.00,WUHU216HW,2013-09-23 23:10:00,
2013-09-23 18:15:00,87.3,60.2,29.68,ESE,113,2.7,4.5,40,0.00,,,0.00,WUHU216HW,2013-09-23 23:15:00,
2013-09-23 18:20:00,87.5,60.3,29.69,ENE,68,3.6,4.5,40,0.00,,,0.00,WUHU216HW,2013-09-23 23:20:00,
2013-09-23 18:25:00,86.8,60.3,29.68,ESE,113,2.9,4.3,41,0.00,,,0.00,WUHU216HW,2013-09-23 23:25:00,
2013-09-23 18:30:00,86.8,60.3,29.69,SE,135,1.8,4.3,41,0.00,,,0.00,WUHU216HW,2013-09-23 23:30:00,
2013-09-23 18:35:00,86.2,59.9,29.68,ESE,113,2.7,3.6,41,0.00,,,0.00,WUHU216HW,2013-09-23 23:35:00,
2013-09-23 18:40:00,85.1,59.5,29.68,ESE,113,2.5,4.7,42,0.00,,,0.00,WUHU216HW,2013-09-23 23:40:00,
2013-09-23 18:45:00,84.1,59.1,29.68,East,90,1.8,4.7,43,0.00,,,0.00,WUHU216HW,2013-09-23 23:45:00,
2013-09-23 18:50:00,83.2,59.0,29.68,East,90,2.0,2.7,44,0.00,,,0.00,WUHU216HW,2013-09-23 23:50:00,
2013-09-23 18:55:00,82.4,58.9,29.69,ESE,113,0.7,2.7,45,0.00,,,0.00,WUHU216HW,2013-09-23 23:55:00,
2013-09-23 19:01:00,82.3,59.3,29.69,ESE,113,0.4,2.7,46,0.00,,,0.00,WUHU216HW,2013-09-24 00:01:00,
2013-09-23 19:06:00,81.7,60.0,29.69,ESE,113,0.7,1.8,48,0.00,,,0.00,WUHU216HW,2013-09-24 00:06:00,
2013-09-23 19:11:00,81.2,59.6,29.69,ESE,113,1.3,1.8,48,0.00,,,0.00,WUHU216HW,2013-09-24 00:11:00,
2013-09-23 19:16:00,81.0,60.0,29.69,ESE,113,0.0,1.3,49,0.00,,,0.00,WUHU216HW,2013-09-24 00:16:00,
2013-09-23 19:21:00,80.5,59.5,29.68,ESE,113,0.0,0.0,49,0.00,,,0.00,WUHU216HW,2013-09-24 00:21:00,
2013-09-23 19:25:00,79.9,59.0,29.69,ESE,113,0.0,0.4,49,0.00,,,0.00,WUHU216HW,2013-09-24 00:25:00,
2013-09-23 19:30:00,79.6,59.9,29.68,ESE,113,0.0,0.4,51,0.00,,,0.00,WUHU216HW,2013-09-24 00:30:00,
2013-09-23 19:35:00,79.0,60.4,29.68,ESE,113,0.0,0.0,53,0.00,,,0.00,WUHU216HW,2013-09-24 00:35:00,
2013-09-23 19:40:00,78.5,60.0,29.69,ESE,113,0.0,0.0,53,0.00,,,0.00,WUHU216HW,2013-09-24 00:40:00,
2013-09-23 19:45:00,77.9,60.0,29.69,ESE,113,0.0,0.0,54,0.00,,,0.00,WUHU216HW,2013-09-24 00:45:00,
2013-09-23 19:51:00,77.4,60.9,29.69,ESE,113,0.0,0.0,57,0.00,,,0.00,WUHU216HW,2013-09-24 00:51:00,
2013-09-23 19:56:00,76.9,60.4,29.69,ESE,113,0.0,0.0,57,0.00,,,0.00,WUHU216HW,2013-09-24 00:56:00,
2013-09-23 20:00:00,76.3,59.9,29.69,ESE,113,0.0,0.0,57,0.00,,,0.00,WUHU216HW,2013-09-24 01:00:00,
2013-09-23 20:05:00,76.0,59.6,29.69,ESE,113,0.0,0.0,57,0.00,,,0.00,WUHU216HW,2013-09-24 01:05:00,
2013-09-23 20:10:00,75.8,59.9,29.70,ESE,113,0.0,0.0,58,0.00,,,0.00,WUHU216HW,2013-09-24 01:10:00,
2013-09-23 20:15:00,75.6,60.9,29.70,ESE,113,0.0,0.0,60,0.00,,,0.00,WUHU216HW,2013-09-24 01:15:00,
2013-09-23 20:20:00,75.4,60.1,29.70,ESE,113,0.0,0.0,59,0.00,,,0.00,WUHU216HW,2013-09-24 01:20:00,
2013-09-23 20:25:00,74.9,59.6,29.70,ESE,113,0.0,0.0,59,0.00,,,0.00,WUHU216HW,2013-09-24 01:25:00,
2013-09-23 20:31:00,74.3,59.6,29.70,ESE,113,0.0,0.0,60,0.00,,,0.00,WUHU216HW,2013-09-24 01:31:00,
2013-09-23 20:36:00,73.8,59.0,29.70,ESE,113,0.0,0.0,60,0.00,,,0.00,WUHU216HW,2013-09-24 01:36:00,
2013-09-23 20:41:00,73.8,60.0,29.70,ESE,113,0.0,0.0,62,0.00,,,0.00,WUHU216HW,2013-09-24 01:41:00,
2013-09-23 20:45:00,73.8,60.4,29.70,ESE,113,0.0,0.0,63,0.00,,,0.00,WUHU216HW,2013-09-24 01:45:00,
2013-09-23 20:50:00,73.8,60.9,29.71,ESE,113,0.0,0.0,64,0.00,,,0.00,WUHU216HW,2013-09-24 01:50:00,
2013-09-23 20:56:00,73.6,60.7,29.71,ESE,113,0.0,0.0,64,0.00,,,0.00,WUHU216HW,2013-09-24 01:56:00,
2013-09-23 21:01:00,73.4,61.8,29.71,ESE,113,0.0,0.0,67,0.00,,,0.00,WUHU216HW,2013-09-24 02:01:00,
2013-09-23 21:06:00,72.7,62.5,29.72,ESE,113,0.0,0.0,70,0.00,,,0.00,WUHU216HW,2013-09-24 02:06:00,
2013-09-23 21:11:00,72.4,62.1,29.72,ESE,113,0.0,0.0,70,0.00,,,0.00,WUHU216HW,2013-09-24 02:11:00,
2013-09-23 21:16:00,71.8,61.6,29.72,ESE,113,0.0,0.0,70,0.00,,,0.00,WUHU216HW,2013-09-24 02:16:00,
2013-09-23 21:21:00,71.1,61.2,29.73,ESE,113,0.0,0.0,71,0.00,,,0.00,WUHU216HW,2013-09-24 02:21:00,
2013-09-23 21:26:00,70.9,61.0,29.73,ESE,113,0.0,0.0,71,0.00,,,0.00,WUHU216HW,2013-09-24 02:26:00,
2013-09-23 21:31:00,70.9,60.7,29.73,ESE,113,0.0,0.0,70,0.00,,,0.00,WUHU216HW,2013-09-24 02:31:00,
2013-09-23 21:36:00,70.9,60.7,29.73,ENE,68,0.0,0.0,70,0.00,,,0.00,WUHU216HW,2013-09-24 02:36:00,
2013-09-23 21:41:00,70.7,60.5,29.73,ENE,68,0.0,0.2,70,0.00,,,0.00,WUHU216HW,2013-09-24 02:41:00,
2013-09-23 21:46:00,70.6,60.3,29.73,ENE,68,0.0,0.2,70,0.00,,,0.00,WUHU216HW,2013-09-24 02:46:00,
2013-09-23 21:51:00,70.0,60.1,29.73,ENE,68,0.0,0.0,71,0.00,,,0.00,WUHU216HW,2013-09-24 02:51:00,
2013-09-23 21:56:00,69.8,59.9,29.74,ENE,68,0.0,0.0,71,0.00,,,0.00,WUHU216HW,2013-09-24 02:56:00,
2013-09-23 22:01:00,69.7,59.8,29.73,ENE,68,0.0,0.0,71,0.00,,,0.00,WUHU216HW,2013-09-24 03:01:00,
2013-09-23 22:06:00,69.7,60.6,29.74,ENE,68,0.0,0.0,73,0.00,,,0.00,WUHU216HW,2013-09-24 03:06:00,
2013-09-23 22:11:00,69.7,60.6,29.74,ENE,68,0.0,0.0,73,0.00,,,0.00,WUHU216HW,2013-09-24 03:11:00,
2013-09-23 22:16:00,69.5,60.8,29.74,NNE,23,0.0,0.0,74,0.00,,,0.00,WUHU216HW,2013-09-24 03:16:00,
2013-09-23 22:21:00,69.1,60.9,29.74,NNE,23,0.0,0.0,75,0.00,,,0.00,WUHU216HW,2013-09-24 03:21:00,
2013-09-23 22:26:00,69.1,60.5,29.75,NNE,23,0.0,0.0,74,0.00,,,0.00,WUHU216HW,2013-09-24 03:26:00,
2013-09-23 22:31:00,68.9,60.7,29.75,NNE,23,0.0,0.0,75,0.00,,,0.00,WUHU216HW,2013-09-24 03:31:00,
2013-09-23 22:36:00,68.8,60.1,29.75,NNE,23,0.0,0.4,74,0.00,,,0.00,WUHU216HW,2013-09-24 03:36:00,
2013-09-23 22:41:00,68.6,60.8,29.75,NNE,23,0.0,0.4,76,0.00,,,0.00,WUHU216HW,2013-09-24 03:41:00,
2013-09-23 22:46:00,68.2,60.8,29.75,ENE,68,0.0,0.0,77,0.00,,,0.00,WUHU216HW,2013-09-24 03:46:00,
2013-09-23 22:51:00,67.7,60.2,29.75,ENE,68,0.0,0.0,77,0.00,,,0.00,WUHU216HW,2013-09-24 03:51:00,
2013-09-23 22:56:00,67.7,60.2,29.75,ENE,68,0.0,0.0,77,0.00,,,0.00,WUHU216HW,2013-09-24 03:56:00,
2013-09-23 23:01:00,67.7,60.2,29.76,ENE,68,0.0,0.0,77,0.00,,,0.00,WUHU216HW,2013-09-24 04:01:00,
2013-09-23 23:06:00,67.7,60.7,29.76,ENE,68,0.0,0.0,78,0.00,,,0.00,WUHU216HW,2013-09-24 04:06:00,
2013-09-23 23:11:00,67.3,59.9,29.76,ENE,68,0.0,0.0,77,0.00,,,0.00,WUHU216HW,2013-09-24 04:11:00,
2013-09-23 23:16:00,67.5,60.5,29.75,ENE,68,0.0,0.0,78,0.00,,,0.00,WUHU216HW,2013-09-24 04:16:00,
2013-09-23 23:21:00,67.5,60.9,29.75,ENE,68,0.0,0.0,79,0.00,,,0.00,WUHU216HW,2013-09-24 04:21:00,
2013-09-23 23:26:00,67.3,60.7,29.75,ENE,68,0.0,0.0,79,0.00,,,0.00,WUHU216HW,2013-09-24 04:26:00,
2013-09-23 23:31:00,67.3,60.7,29.76,ENE,68,0.0,0.0,79,0.00,,,0.00,WUHU216HW,2013-09-24 04:31:00,
2013-09-23 23:36:00,67.3,61.0,29.76,ENE,68,0.0,0.0,80,0.00,,,0.00,WUHU216HW,2013-09-24 04:36:00,
2013-09-23 23:41:00,67.3,60.7,29.76,ENE,68,0.0,0.0,79,0.00,,,0.00,WUHU216HW,2013-09-24 04:41:00,
2013-09-23 23:46:00,67.3,60.7,29.76,NNE,23,0.0,0.0,79,0.00,,,0.00,WUHU216HW,2013-09-24 04:46:00,
2013-09-23 23:51:00,67.3,61.0,29.76,NNE,23,0.0,0.0,80,0.00,,,0.00,WUHU216HW,2013-09-24 04:51:00,
2013-09-23 23:56:00,67.1,60.8,29.76,NNE,23,0.0,0.0,80,0.00,,,0.00,WUHU216HW,2013-09-24 04:56:00,